This demonstration page uses our WeatherBlox Daily Observations layout. Learn more.

39.01783, -85.05884

Hourly Observations for December 8, 2018

Temp ( °F °C ) Dew Point ( °F °C ) Humidity (%) Winds ( mph kmh ) Pressure ( in mb ) Visibility ( mi km ) Precip ( " mm )
12:52 am 00:52 Clear 26 -3.3 18 -7.8 71 71 NNW 6 9 30.5 1033 10 16.09344 0 0
1:52 am 01:52 Clear 24 -4.4 17 -8.3 75 75 NNW 9 15 30.5 1033 10 16.09344 0 0
2:52 am 02:52 Clear 23 -5 17 -8.3 78 78 N 7 11 30.5 1033 8 12.874752 0 0
3:52 am 03:52 Mostly Cloudy 22 -5.6 17 -8.3 82 82 N 8 13 30.5 1033 10 16.09344 0 0
4:52 am 04:52 Cloudy 22 -5.6 17 -8.3 82 82 N 7 11 30.53 1034 10 16.09344 0 0
5:52 am 05:52 Cloudy 22 -5.6 17 -8.3 82 82 N 8 13 30.53 1034 10 16.09344 0 0
6:52 am 06:52 Cloudy 22 -5.6 15 -9.4 75 75 NNE 9 15 30.56 1035 10 16.09344 0 0
7:52 am 07:52 Mostly Cloudy 23 -5 13 -10.6 65 65 NE 10 17 30.59 1036 10 16.09344 0 0
8:52 am 08:52 Mostly Cloudy 23 -5 13 -10.6 65 65 NE 15 24 30.59 1036 10 16.09344 0 0
9:52 am 09:52 Cloudy 24 -4.4 12 -11.1 60 60 ENE 15 24 30.59 1036 10 16.09344 0 0
10:52 am 10:52 Cloudy 25 -3.9 12 -11.1 58 58 ENE 14 22 30.62 1037 10 16.09344 0 0
11:52 am 11:52 Cloudy 26 -3.3 13 -10.6 57 57 ENE 13 20 30.56 1035 10 16.09344 0 0
12:52 pm 12:52 Cloudy 27 -2.8 12 -11.1 53 53 ENE 14 22 30.53 1034 10 16.09344 0 0
1:52 pm 13:52 Cloudy 27 -2.8 13 -10.6 55 55 E 10 17 30.53 1034 10 16.09344 0 0
2:52 pm 14:52 Cloudy 27 -2.8 13 -10.6 55 55 NNE 12 19 30.5 1033 10 16.09344 0 0
3:52 pm 15:52 Cloudy 28 -2.2 14 -10 56 56 ENE 9 15 30.5 1033 10 16.09344 0 0
4:52 pm 16:52 Cloudy 27 -2.8 14 -10 58 58 NE 12 19 30.5 1033 10 16.09344 0 0
5:52 pm 17:52 Cloudy 27 -2.8 15 -9.4 61 61 NE 12 19 30.5 1033 10 16.09344 0 0
6:52 pm 18:52 Cloudy 26 -3.3 16 -8.9 66 66 ENE 12 19 30.48 1032 10 16.09344 0 0
7:52 pm 19:52 Cloudy 26 -3.3 16 -8.9 66 66 ENE 15 24 30.5 1033 10 16.09344 0 0
8:52 pm 20:52 Cloudy 26 -3.3 16 -8.9 66 66 ENE 12 19 30.48 1032 10 16.09344 0 0
9:52 pm 21:52 Cloudy 26 -3.3 16 -8.9 66 66 ENE 13 20 30.45 1031 10 16.09344 0 0
10:52 pm 22:52 Cloudy 26 -3.3 17 -8.3 69 69 ENE 12 19 30.45 1031 10 16.09344 0 0
11:52 pm 23:52 Cloudy 26 -3.3 17 -8.3 69 69 ENE 13 20 30.39 1029 10 16.09344 0 0

Powered by AerisWeather